createdAt,value
2022-09-04T00:01:06.860Z,10.91
2022-09-04T00:04:56.699Z,10.88
2022-09-04T00:08:20.861Z,10.87
2022-09-04T00:11:49.183Z,10.78
2022-09-04T00:14:58.349Z,10.76
2022-09-04T00:18:13.853Z,10.70
2022-09-04T00:21:26.803Z,10.64
2022-09-04T00:24:40.639Z,10.62
2022-09-04T00:27:46.111Z,10.58
2022-09-04T00:30:56.010Z,10.47
2022-09-04T00:34:09.382Z,10.38
2022-09-04T00:37:16.567Z,10.31
2022-09-04T00:40:44.675Z,10.29
2022-09-04T00:44:10.331Z,10.28
2022-09-04T00:47:51.442Z,10.19
2022-09-04T00:51:00.322Z,9.99
2022-09-04T00:54:40.132Z,10.02
2022-09-04T00:57:57.513Z,9.86
2022-09-04T01:01:00.055Z,9.83
2022-09-04T01:04:08.287Z,9.78
2022-09-04T01:07:24.226Z,9.70
2022-09-04T01:11:04.467Z,9.68
2022-09-04T01:14:29.510Z,9.71
2022-09-04T01:17:46.768Z,9.71
2022-09-04T01:21:31.426Z,9.59
2022-09-04T01:24:55.653Z,9.57
2022-09-04T01:28:22.878Z,9.51
2022-09-04T01:31:25.210Z,9.46
2022-09-04T01:34:49.691Z,9.24
2022-09-04T01:37:51.851Z,9.37
2022-09-04T01:41:01.169Z,9.30
2022-09-04T01:44:06.335Z,9.21
2022-09-04T01:47:31.739Z,9.20
2022-09-04T01:50:35.238Z,9.20
2022-09-04T01:53:41.528Z,9.13
2022-09-04T01:56:48.891Z,9.14
2022-09-04T02:00:30.153Z,9.14
2022-09-04T02:03:40.984Z,9.07
2022-09-04T02:07:21.755Z,9.06
2022-09-04T02:10:48.940Z,8.87
2022-09-04T02:14:28.380Z,8.89
2022-09-04T02:17:49.147Z,8.84
2022-09-04T02:20:58.894Z,8.71
2022-09-04T02:24:25.418Z,8.74
2022-09-04T02:27:39.577Z,8.73
2022-09-04T02:31:19.083Z,8.74
2022-09-04T02:34:36.151Z,8.68
2022-09-04T02:38:17.179Z,8.70
2022-09-04T02:41:50.968Z,8.72
2022-09-04T02:45:18.001Z,8.69
2022-09-04T02:48:41.762Z,8.57
2022-09-04T02:51:47.368Z,8.41
2022-09-04T02:55:08.305Z,8.36
2022-09-04T02:58:35.067Z,8.42
2022-09-04T03:01:49.564Z,8.39
2022-09-04T03:05:12.208Z,8.26
2022-09-04T03:08:23.706Z,8.30
2022-09-04T03:11:50.337Z,8.35
2022-09-04T03:15:29.767Z,8.25
2022-09-04T03:18:56.871Z,8.31
2022-09-04T03:22:23.774Z,8.23
2022-09-04T03:25:28.758Z,8.25
2022-09-04T03:28:40.468Z,8.22
2022-09-04T03:32:15.581Z,8.15
2022-09-04T03:35:30.477Z,8.17
2022-09-04T03:38:55.075Z,8.13
2022-09-04T03:42:09.495Z,8.03
2022-09-04T03:45:56.668Z,8.08
2022-09-04T03:49:17.085Z,8.04
2022-09-04T03:52:54.063Z,7.85
2022-09-04T03:56:30.233Z,7.87
2022-09-04T03:59:51.068Z,7.77
2022-09-04T04:03:37.931Z,7.85
2022-09-04T04:07:12.506Z,7.80
2022-09-04T04:10:39.379Z,7.82
2022-09-04T04:13:53.931Z,7.75
2022-09-04T04:17:12.623Z,7.83
2022-09-04T04:20:45.327Z,7.82
2022-09-04T04:24:14.589Z,7.70
2022-09-04T04:27:54.460Z,7.79
2022-09-04T04:31:25.883Z,7.74
2022-09-04T04:34:40.091Z,7.90
2022-09-04T04:38:06.787Z,7.98
2022-09-04T04:41:24.789Z,8.02
2022-09-04T04:45:17.667Z,7.97
2022-09-04T04:48:57.233Z,8.01
2022-09-04T04:52:20.741Z,8.06
2022-09-04T04:55:32.915Z,8.13
2022-09-04T04:58:53.942Z,8.13
2022-09-04T05:02:24.975Z,8.21
2022-09-04T05:05:46.598Z,8.21
2022-09-04T05:09:02.118Z,8.35
2022-09-04T05:12:16.453Z,8.43
2022-09-04T05:16:05.022Z,8.60
2022-09-04T05:19:08.206Z,8.69
2022-09-04T05:22:34.049Z,8.67
2022-09-04T05:25:47.512Z,8.72
2022-09-04T05:29:13.913Z,8.84
2022-09-04T05:32:32.536Z,8.98
2022-09-04T05:35:35.440Z,9.14
2022-09-04T05:38:56.162Z,9.37
2022-09-04T05:42:06.836Z,9.62
2022-09-04T05:45:17.990Z,9.95
2022-09-04T05:48:57.893Z,10.36
2022-09-04T05:52:38.664Z,10.82
2022-09-04T05:55:58.930Z,11.34
2022-09-04T05:59:19.439Z,11.67
2022-09-04T06:02:40.556Z,12.18
2022-09-04T06:06:30.380Z,12.54
2022-09-04T06:09:54.158Z,13.19
2022-09-04T06:13:07.365Z,13.34
2022-09-04T06:16:27.696Z,13.95
2022-09-04T06:19:45.884Z,14.42
2022-09-04T06:23:14.484Z,15.26
2022-09-04T06:26:41.160Z,15.77
2022-09-04T06:30:14.754Z,15.78
2022-09-04T06:33:23.091Z,15.88
2022-09-04T06:36:43.089Z,16.39
2022-09-04T06:40:02.085Z,16.56
2022-09-04T06:43:09.601Z,16.77
2022-09-04T06:46:14.271Z,16.99
2022-09-04T06:49:36.252Z,17.38
2022-09-04T06:53:04.277Z,17.66
2022-09-04T06:56:28.548Z,17.76
2022-09-04T06:59:55.068Z,17.93
2022-09-04T07:03:17.114Z,18.56
2022-09-04T07:06:33.056Z,18.76
2022-09-04T07:09:41.679Z,19.06
2022-09-04T07:13:04.687Z,19.42
2022-09-04T07:16:07.000Z,19.50
2022-09-04T07:19:47.172Z,19.88
2022-09-04T07:23:07.923Z,19.93
2022-09-04T07:26:30.988Z,19.97
2022-09-04T07:29:37.026Z,20.27
2022-09-04T07:33:07.257Z,20.34
2022-09-04T07:36:41.885Z,21.13
2022-09-04T07:40:08.145Z,21.18
2022-09-04T07:43:15.778Z,21.47
2022-09-04T07:46:46.988Z,21.66
2022-09-04T07:50:18.546Z,21.94
2022-09-04T07:53:39.315Z,22.04
2022-09-04T07:56:54.918Z,22.17
2022-09-04T08:00:23.354Z,22.19
2022-09-04T08:03:54.011Z,22.28
2022-09-04T08:06:59.873Z,22.22
2022-09-04T08:10:32.760Z,22.46
2022-09-04T08:13:56.609Z,22.78
2022-09-04T08:17:37.156Z,22.71
2022-09-04T08:20:41.217Z,23.07
2022-09-04T08:23:49.546Z,23.43
2022-09-04T08:27:04.427Z,23.77
2022-09-04T08:30:09.389Z,23.72
2022-09-04T08:33:30.246Z,24.14
2022-09-04T08:37:09.611Z,24.07
2022-09-04T08:40:30.943Z,24.30
2022-09-04T08:44:09.464Z,24.35
2022-09-04T08:47:18.267Z,24.80
2022-09-04T08:50:39.653Z,24.78
2022-09-04T08:54:11.055Z,24.94
2022-09-04T08:57:36.835Z,25.19
2022-09-04T09:00:47.500Z,25.04
2022-09-04T09:04:07.380Z,25.28
2022-09-04T09:07:36.528Z,25.63
2022-09-04T09:11:16.928Z,25.62
2022-09-04T09:14:41.904Z,25.47
2022-09-04T09:18:01.793Z,24.77
2022-09-04T09:21:13.674Z,24.67
2022-09-04T09:24:35.869Z,25.27
2022-09-04T09:27:57.006Z,25.72
2022-09-04T09:31:21.981Z,25.59
2022-09-04T09:34:54.939Z,25.44
2022-09-04T09:38:37.517Z,25.90
2022-09-04T09:42:17.051Z,26.16
2022-09-04T09:45:44.640Z,26.83
2022-09-04T09:49:15.142Z,26.57
2022-09-04T09:52:42.428Z,27.10
2022-09-04T09:56:07.163Z,27.00
2022-09-04T09:59:27.966Z,26.16
2022-09-04T10:02:51.740Z,25.96
2022-09-04T10:05:56.786Z,25.85
2022-09-04T10:09:37.702Z,25.45
2022-09-04T10:13:17.286Z,25.30
2022-09-04T10:16:42.903Z,25.74
2022-09-04T10:20:03.930Z,25.38
2022-09-04T10:23:06.012Z,25.54
2022-09-04T10:26:14.613Z,25.96
2022-09-04T10:29:45.166Z,26.22
2022-09-04T10:33:26.469Z,25.64
2022-09-04T10:36:58.452Z,25.56
2022-09-04T10:40:51.472Z,25.11
2022-09-04T10:44:31.067Z,25.13
2022-09-04T10:47:59.290Z,24.99
2022-09-04T10:51:20.932Z,24.83
2022-09-04T10:55:01.142Z,24.57
2022-09-04T10:58:21.980Z,24.38
2022-09-04T11:01:58.984Z,24.18
2022-09-04T11:05:27.844Z,23.50
2022-09-04T11:08:42.491Z,23.54
2022-09-04T11:12:06.054Z,23.40
2022-09-04T11:15:48.051Z,23.98
2022-09-04T11:19:04.835Z,23.91
2022-09-04T11:22:25.853Z,24.18
2022-09-04T11:26:05.852Z,24.07
2022-09-04T11:29:31.085Z,23.82
2022-09-04T11:32:42.123Z,23.47
2022-09-04T11:35:56.277Z,23.34
2022-09-04T11:39:44.521Z,23.32
2022-09-04T11:43:08.779Z,23.31
2022-09-04T11:46:32.594Z,23.30
2022-09-04T11:49:57.832Z,23.30
2022-09-04T11:53:30.916Z,23.08
2022-09-04T11:56:57.709Z,23.09
2022-09-04T12:00:17.059Z,22.89
2022-09-04T12:03:29.587Z,23.20
2022-09-04T12:07:13.398Z,23.02
2022-09-04T12:10:34.407Z,22.91
2022-09-04T12:13:58.149Z,23.14
2022-09-04T12:17:15.618Z,23.78
2022-09-04T12:20:24.361Z,24.03
2022-09-04T12:24:04.078Z,24.14
2022-09-04T12:27:19.730Z,24.10
2022-09-04T12:31:00.778Z,24.17
2022-09-04T12:34:34.850Z,24.46
2022-09-04T12:38:01.997Z,24.31
2022-09-04T12:41:29.022Z,24.12
2022-09-04T12:44:41.002Z,23.89
2022-09-04T12:47:58.770Z,23.78
2022-09-04T12:51:12.115Z,23.94
2022-09-04T12:54:38.676Z,24.03
2022-09-04T12:58:10.143Z,23.78
2022-09-04T13:01:20.370Z,23.80
2022-09-04T13:04:27.879Z,23.58
2022-09-04T13:08:07.547Z,23.44
2022-09-04T13:11:28.479Z,23.19
2022-09-04T13:14:46.726Z,22.95
2022-09-04T13:17:58.604Z,23.06
2022-09-04T13:21:19.402Z,23.07
2022-09-04T13:24:51.248Z,23.06
2022-09-04T13:28:14.724Z,23.25
2022-09-04T13:31:19.477Z,23.28
2022-09-04T13:34:48.442Z,23.32
2022-09-04T13:38:16.457Z,23.29
2022-09-04T13:41:25.026Z,23.43
2022-09-04T13:44:57.320Z,23.35
2022-09-04T13:48:01.740Z,23.45
2022-09-04T13:51:24.800Z,23.30
2022-09-04T13:54:48.055Z,23.42
2022-09-04T13:58:02.062Z,23.62
2022-09-04T14:01:11.867Z,23.83
2022-09-04T14:04:26.652Z,23.94
2022-09-04T14:07:45.516Z,24.02
2022-09-04T14:10:48.836Z,24.22
2022-09-04T14:14:07.446Z,24.30
2022-09-04T14:17:10.189Z,24.47
2022-09-04T14:20:40.682Z,24.52
2022-09-04T14:24:10.863Z,24.08
2022-09-04T14:27:39.013Z,23.58
2022-09-04T14:30:59.716Z,23.35
2022-09-04T14:34:39.225Z,23.10
2022-09-04T14:38:00.137Z,22.87
2022-09-04T14:41:35.845Z,22.66
2022-09-04T14:45:09.810Z,22.46
2022-09-04T14:48:12.562Z,22.47
2022-09-04T14:51:17.877Z,22.34
2022-09-04T14:54:26.754Z,22.47
2022-09-04T14:57:41.769Z,22.43
2022-09-04T15:01:08.039Z,22.54
2022-09-04T15:04:10.591Z,22.44
2022-09-04T15:07:43.554Z,22.39
2022-09-04T15:10:54.777Z,22.08
2022-09-04T15:14:08.103Z,22.03
2022-09-04T15:17:13.056Z,22.12
2022-09-04T15:20:25.525Z,22.25
2022-09-04T15:24:05.547Z,22.24
2022-09-04T15:27:18.198Z,22.21
2022-09-04T15:30:29.328Z,22.11
2022-09-04T15:33:31.710Z,21.96
2022-09-04T15:36:36.066Z,21.98
2022-09-04T15:39:48.907Z,22.05
2022-09-04T15:43:11.951Z,21.97
2022-09-04T15:46:33.060Z,21.88
2022-09-04T15:49:49.250Z,21.84
2022-09-04T15:53:26.803Z,21.76
2022-09-04T15:56:57.781Z,21.68
2022-09-04T16:00:10.182Z,21.56
2022-09-04T16:03:25.091Z,21.56
2022-09-04T16:06:37.170Z,21.56
2022-09-04T16:09:39.994Z,21.58
2022-09-04T16:13:10.706Z,21.49
2022-09-04T16:16:18.149Z,21.30
2022-09-04T16:19:28.358Z,21.20
2022-09-04T16:22:43.894Z,21.07
2022-09-04T16:25:50.437Z,21.00
2022-09-04T16:28:58.308Z,20.68
2022-09-04T16:32:00.487Z,20.57
2022-09-04T16:35:19.167Z,20.44
2022-09-04T16:38:25.963Z,20.33
2022-09-04T16:41:31.848Z,20.26
2022-09-04T16:44:45.341Z,20.05
2022-09-04T16:48:34.606Z,20.01
2022-09-04T16:51:43.081Z,19.89
2022-09-04T16:54:49.922Z,19.84
2022-09-04T16:58:02.298Z,19.85
2022-09-04T17:01:14.135Z,19.75
2022-09-04T17:04:26.297Z,19.76
2022-09-04T17:07:34.114Z,19.65
2022-09-04T17:11:14.791Z,19.48
2022-09-04T17:14:36.627Z,19.32
2022-09-04T17:17:43.267Z,19.35
2022-09-04T17:22:55.537Z,19.35
2022-09-04T17:29:04.368Z,19.15
2022-09-04T17:29:10.106Z,19.06
2022-09-04T17:31:36.489Z,18.98
2022-09-04T17:40:32.742Z,18.90
2022-09-04T17:40:51.159Z,18.82
2022-09-04T17:42:09.653Z,18.75
2022-09-04T17:45:34.426Z,18.67
2022-09-04T17:48:42.833Z,18.51
2022-09-04T17:51:57.556Z,18.43
2022-09-04T17:55:07.372Z,18.31
2022-09-04T17:58:15.062Z,18.15
2022-09-04T18:01:25.185Z,18.00
2022-09-04T18:04:56.246Z,17.79
2022-09-04T18:08:16.691Z,17.68
2022-09-04T18:11:24.768Z,17.53
2022-09-04T18:15:12.950Z,17.34
2022-09-04T18:18:37.311Z,17.21
2022-09-04T18:22:15.755Z,17.10
2022-09-04T18:25:28.773Z,16.99
2022-09-04T18:28:42.555Z,16.89
2022-09-04T18:37:10.076Z,16.87
2022-09-04T18:37:26.905Z,16.77
2022-09-04T18:39:15.183Z,16.67
2022-09-04T18:49:20.761Z,16.61
2022-09-04T18:50:50.304Z,16.57
2022-09-04T18:50:50.779Z,16.53
2022-09-04T18:52:50.591Z,16.49
2022-09-04T18:56:00.091Z,16.44
2022-09-04T18:59:07.434Z,16.41
2022-09-04T19:02:20.978Z,16.36
2022-09-04T19:05:33.614Z,16.27
2022-09-04T19:08:50.283Z,16.22
2022-09-04T19:12:03.357Z,16.16
2022-09-04T19:15:36.556Z,16.06
2022-09-04T19:18:43.707Z,15.97
2022-09-04T19:21:58.232Z,15.88
2022-09-04T19:25:04.559Z,15.83
2022-09-04T19:28:13.993Z,15.79
2022-09-04T19:31:24.029Z,15.81
2022-09-04T19:34:42.293Z,15.78
2022-09-04T19:42:07.475Z,15.83
2022-09-04T19:45:59.056Z,15.84
2022-09-04T19:46:17.542Z,15.74
2022-09-04T19:49:31.435Z,15.66
2022-09-04T19:53:34.064Z,15.63
2022-09-04T19:55:37.830Z,15.58
2022-09-04T19:58:44.100Z,15.59
2022-09-04T20:02:02.940Z,15.53
2022-09-04T20:05:17.104Z,15.51
2022-09-04T20:08:32.906Z,15.51
2022-09-04T20:11:40.410Z,15.44
2022-09-04T20:14:50.178Z,15.41
2022-09-04T20:17:55.673Z,15.44
2022-09-04T20:21:12.802Z,15.42
2022-09-04T20:24:19.114Z,15.38
2022-09-04T20:27:29.603Z,15.45
2022-09-04T20:30:33.546Z,15.42
2022-09-04T20:33:38.170Z,15.42
2022-09-04T20:36:49.057Z,15.42
2022-09-04T20:40:13.519Z,15.50
2022-09-04T20:43:28.097Z,15.44
2022-09-04T20:50:38.832Z,15.47
2022-09-04T20:53:04.899Z,15.51
2022-09-04T20:54:06.638Z,15.46
2022-09-04T21:01:44.434Z,15.51
2022-09-04T21:03:08.987Z,15.47
2022-09-04T21:04:52.996Z,15.48
2022-09-04T21:08:19.634Z,15.38
2022-09-04T21:11:39.756Z,15.41
2022-09-04T21:14:49.892Z,15.41
2022-09-04T21:18:04.041Z,15.42
2022-09-04T21:21:06.604Z,15.43
2022-09-04T21:24:31.434Z,15.42
2022-09-04T21:27:58.466Z,15.42
2022-09-04T21:31:44.571Z,15.31
2022-09-04T21:35:12.012Z,15.29
2022-09-04T21:38:47.888Z,15.28
2022-09-04T21:42:21.082Z,15.31
2022-09-04T21:45:33.464Z,15.19
2022-09-04T21:49:13.335Z,15.15
2022-09-04T21:53:06.292Z,15.05
2022-09-04T22:00:36.788Z,15.08
2022-09-04T22:02:37.961Z,15.00
2022-09-04T22:03:40.604Z,14.93
2022-09-04T22:10:26.187Z,14.85
2022-09-04T22:13:38.521Z,14.82
2022-09-04T22:14:49.863Z,14.78
2022-09-04T22:18:29.671Z,14.63
2022-09-04T22:22:13.069Z,14.60
2022-09-04T22:25:45.606Z,14.56
2022-09-04T22:29:12.446Z,14.56
2022-09-04T22:32:20.535Z,14.50
2022-09-04T22:35:59.814Z,14.41
2022-09-04T22:39:31.508Z,14.30
2022-09-04T22:42:42.831Z,14.23
2022-09-04T22:45:47.777Z,14.12
2022-09-04T22:49:24.548Z,14.03
2022-09-04T22:52:56.047Z,13.91
2022-09-04T22:56:23.397Z,13.83
2022-09-04T22:59:59.062Z,13.77
2022-09-04T23:03:09.228Z,13.67
2022-09-04T23:07:11.779Z,13.55
2022-09-04T23:13:51.849Z,13.46
2022-09-04T23:14:02.223Z,13.34
2022-09-04T23:17:15.055Z,13.20
2022-09-04T23:26:32.566Z,13.11
2022-09-04T23:26:58.454Z,12.97
2022-09-04T23:28:50.238Z,12.84
2022-09-04T23:32:25.043Z,12.71
2022-09-04T23:36:28.535Z,12.57
2022-09-04T23:40:27.433Z,12.46
2022-09-04T23:44:16.278Z,12.34
2022-09-04T23:47:54.315Z,12.24
2022-09-04T23:51:44.291Z,12.18
2022-09-04T23:55:49.192Z,12.06
2022-09-04T23:59:36.195Z,11.94
